Time;durP1;ratioP1;P1;durP2;ratioP2;P2;SDS_P1;SDS_P2;PMS_P1;PMS_P2;Temp;Humidity;BMP_temperature;BMP_pressure;BME280_temperature;BME280_humidity;BME280_pressure;Samples;Min_cycle;Max_cycle;Signal;HPM_P1;HPM_P2
2021/08/25 00:01:31;;;;;;;;;;;;;;;13.16;83.91;97053.84;5094327;28;19961;-80
2021/08/25 00:03:57;;;;;;;;;;;;;;;13.14;83.71;97055.09;5091766;28;19958;-79
2021/08/25 00:06:22;;;;;;;;;;;;;;;13.10;83.47;97052.13;5093833;28;20049;-80
2021/08/25 00:08:48;;;;;;;;;;;;;;;13.08;84.03;97058.59;5093668;28;19964;-80
2021/08/25 00:11:14;;;;;;;;;;;;;;;13.06;83.98;97056.22;5075458;28;19964;-80
2021/08/25 00:13:40;;;;;;;;;;;;;;;13.04;84.40;97050.38;5094035;28;19956;-80
2021/08/25 00:16:06;;;;;;;;;;;;;;;13.01;83.33;97053.41;5092694;28;19963;-80
2021/08/25 00:18:32;;;;;;;;;;;;;;;12.99;83.34;97052.81;5094367;28;19975;-78
2021/08/25 00:20:59;;;;;;;;;;;;;;;12.94;85.02;97045.59;5093783;28;19956;-78
2021/08/25 00:23:25;;;;;;;;;;;;;;;12.95;84.92;97052.44;5092546;28;19956;-85
2021/08/25 00:26:02;;;;;;;;;;;;;;;12.94;84.07;97048.22;5093756;28;19956;-83
2021/08/25 00:28:27;;;;;;;;;;;;;;;12.91;84.67;97042.59;5093885;28;19955;-83
2021/08/25 00:30:53;;;;;;;;;;;;;;;12.89;84.31;97048.09;5092553;28;20009;-80
2021/08/25 00:33:19;;;;;;;;;;;;;;;12.87;84.59;97050.13;5092441;28;19979;-83
2021/08/25 00:35:45;;;;;;;;;;;;;;;12.83;84.94;97042.84;5091631;28;20014;-82
2021/08/25 00:38:11;;;;;;;;;;;;;;;12.78;83.79;97039.06;5084700;28;19962;-80
2021/08/25 00:40:37;;;;;;;;;;;;;;;12.77;84.87;97052.44;5093569;28;19967;-80
2021/08/25 00:43:07;;;;;;;;;;;;;;;12.74;85.19;97053.66;5075020;28;19973;-81
2021/08/25 00:45:38;;;;;;;;;;;;;;;12.72;84.36;97039.91;5093761;28;20322;-81
2021/08/25 00:48:05;;;;;;;;;;;;;;;12.68;85.69;97049.28;5093572;28;20423;-81
2021/08/25 00:50:31;;;;;;;;;;;;;;;12.66;83.97;97046.06;5093626;28;19985;-82
2021/08/25 00:52:57;;;;;;;;;;;;;;;12.61;84.67;97045.91;5093562;28;19982;-82
2021/08/25 00:55:23;;;;;;;;;;;;;;;12.59;85.66;97037.41;5091817;28;20355;-81
2021/08/25 00:57:49;;;;;;;;;;;;;;;12.56;85.34;97036.03;5093424;28;20049;-82
2021/08/25 01:00:16;;;;;;;;;;;;;;;12.57;85.34;97036.81;5092149;28;19966;-80
2021/08/25 01:02:52;;;;;;;;;;;;;;;12.56;85.26;97030.75;5083105;28;19962;-80
2021/08/25 01:05:18;;;;;;;;;;;;;;;12.55;85.11;97031.75;5092636;28;19957;-79
2021/08/25 01:07:45;;;;;;;;;;;;;;;12.54;85.67;97027.53;5093549;28;19964;-78
2021/08/25 01:10:20;;;;;;;;;;;;;;;12.56;86.12;97030.75;5092364;28;19958;-79
2021/08/25 01:12:46;;;;;;;;;;;;;;;12.54;84.97;97026.75;5093316;28;19976;-82
2021/08/25 01:15:12;;;;;;;;;;;;;;;12.52;85.11;97026.16;5074571;28;20010;-79
2021/08/25 01:17:38;;;;;;;;;;;;;;;12.52;85.34;97028.78;5096908;28;19968;-79
2021/08/25 01:20:11;;;;;;;;;;;;;;;12.51;85.43;97024.53;5097158;28;19977;-78
2021/08/25 01:22:43;;;;;;;;;;;;;;;12.48;84.75;97024.97;5097091;28;19958;-79
2021/08/25 01:25:10;;;;;;;;;;;;;;;12.48;85.31;97022.34;5095673;28;19965;-80
2021/08/25 01:27:49;;;;;;;;;;;;;;;12.48;85.92;97032.84;5096810;28;19963;-80
2021/08/25 01:30:16;;;;;;;;;;;;;;;12.48;85.80;97024.97;5096896;28;19959;-81
2021/08/25 01:32:42;;;;;;;;;;;;;;;12.46;84.71;97024.38;5097035;28;19975;-80
2021/08/25 01:35:08;;;;;;;;;;;;;;;12.44;85.93;97021.97;5095664;28;19998;-79
2021/08/25 01:37:35;;;;;;;;;;;;;;;12.42;85.75;97017.94;5096968;28;19966;-80
2021/08/25 01:40:01;;;;;;;;;;;;;;;12.41;85.45;97019.78;5097004;28;20332;-80
2021/08/25 01:42:27;;;;;;;;;;;;;;;12.39;85.42;97017.34;5095446;28;19962;-80
2021/08/25 01:44:53;;;;;;;;;;;;;;;12.39;85.83;97008.66;5096877;28;20409;-80
2021/08/25 01:47:19;;;;;;;;;;;;;;;12.36;86.04;97007.25;5096377;28;20464;-79
2021/08/25 01:49:46;;;;;;;;;;;;;;;12.36;85.48;97012.50;5096333;28;19987;-79
2021/08/25 01:52:12;;;;;;;;;;;;;;;12.34;85.95;97011.91;5096310;28;19972;-80
2021/08/25 01:54:38;;;;;;;;;;;;;;;12.33;86.09;97007.69;5096389;28;20436;-80
2021/08/25 01:57:08;;;;;;;;;;;;;;;12.29;86.26;97006.50;5096133;28;19955;-80
2021/08/25 01:59:34;;;;;;;;;;;;;;;12.27;86.30;97005.91;5094280;28;19959;-80
2021/08/25 02:01:59;;;;;;;;;;;;;;;12.26;86.11;96999.03;5095261;28;19963;-80
2021/08/25 02:04:25;;;;;;;;;;;;;;;12.24;86.59;96995.84;5094379;28;20086;-81
2021/08/25 02:06:53;;;;;;;;;;;;;;;12.22;86.29;96995.25;5095309;28;19965;-80
2021/08/25 02:09:20;;;;;;;;;;;;;;;12.22;86.22;96999.66;5095936;28;19957;-80
2021/08/25 02:11:46;;;;;;;;;;;;;;;12.20;85.92;96999.91;5095731;28;19961;-80
2021/08/25 02:14:12;;;;;;;;;;;;;;;12.18;85.46;96992.22;5096050;28;20404;-81
2021/08/25 02:16:38;;;;;;;;;;;;;;;12.15;86.15;96991.84;5095291;28;19955;-80
2021/08/25 02:19:04;;;;;;;;;;;;;;;12.14;86.67;96982.34;5095967;28;19955;-80
2021/08/25 02:21:30;;;;;;;;;;;;;;;12.11;85.77;96982.78;5095950;28;19962;-80
2021/08/25 02:23:56;;;;;;;;;;;;;;;12.06;86.34;96986.03;5095674;28;20409;-80
2021/08/25 02:26:22;;;;;;;;;;;;;;;12.03;87.00;96991.72;5094879;28;19955;-78
2021/08/25 02:28:49;;;;;;;;;;;;;;;12.00;86.54;96986.09;5094695;28;20005;-78
2021/08/25 02:31:15;;;;;;;;;;;;;;;11.95;85.62;96981.50;5095786;28;20414;-78
2021/08/25 02:33:41;;;;;;;;;;;;;;;11.90;86.12;96982.09;5095647;28;20014;-78
2021/08/25 02:36:08;;;;;;;;;;;;;;;11.87;85.69;96986.97;5095733;28;19963;-78
2021/08/25 02:38:34;;;;;;;;;;;;;;;11.84;86.57;96990.81;5095379;28;19956;-78
2021/08/25 02:41:01;;;;;;;;;;;;;;;11.83;87.40;96981.31;5094427;28;19960;-78
2021/08/25 02:43:27;;;;;;;;;;;;;;;11.81;87.09;96978.09;5095483;28;20319;-78
2021/08/25 02:45:53;;;;;;;;;;;;;;;11.82;87.07;96968.38;5095665;28;19968;-78
2021/08/25 02:48:19;;;;;;;;;;;;;;;11.81;86.77;96966.78;5095357;28;20047;-78
2021/08/25 02:50:45;;;;;;;;;;;;;;;11.79;87.24;96969.63;5095170;28;20022;-78
2021/08/25 02:53:11;;;;;;;;;;;;;;;11.77;85.69;96961.16;5095170;28;19979;-78
2021/08/25 02:55:37;;;;;;;;;;;;;;;11.74;86.77;96961.59;5094340;28;19973;-78
2021/08/25 02:58:03;;;;;;;;;;;;;;;11.71;86.26;96956.75;5095866;28;20038;-78
2021/08/25 03:00:29;;;;;;;;;;;;;;;11.67;86.91;96958.19;5093094;28;19965;-78
2021/08/25 03:02:55;;;;;;;;;;;;;;;11.64;86.71;96963.88;5095303;28;19963;-78
2021/08/25 03:05:21;;;;;;;;;;;;;;;11.61;86.34;96966.91;5093791;28;19952;-80
2021/08/25 03:07:46;;;;;;;;;;;;;;;11.56;87.21;96963.09;5094949;28;19966;-78
2021/08/25 03:10:12;;;;;;;;;;;;;;;11.55;86.38;96958.84;5107467;28;19964;-80
2021/08/25 03:12:38;;;;;;;;;;;;;;;11.51;86.89;96962.94;5094268;28;20441;-80
2021/08/25 03:15:05;;;;;;;;;;;;;;;11.51;87.31;96956.88;5094878;28;19985;-83
2021/08/25 03:17:31;;;;;;;;;;;;;;;11.48;86.74;96963.31;5095058;28;20318;-83
2021/08/25 03:19:57;;;;;;;;;;;;;;;11.46;87.63;96961.94;5093470;28;19963;-85
2021/08/25 03:22:23;;;;;;;;;;;;;;;11.45;87.51;96962.97;5092829;28;20053;-82
2021/08/25 03:24:49;;;;;;;;;;;;;;;11.44;86.92;96966.59;5093479;28;20421;-82
2021/08/25 03:27:15;;;;;;;;;;;;;;;11.45;87.98;96961.13;5092682;28;20407;-82
2021/08/25 03:29:41;;;;;;;;;;;;;;;11.44;87.71;96964.75;5110311;28;19953;-83
2021/08/25 03:32:07;;;;;;;;;;;;;;;11.46;87.09;96959.31;5094460;28;19961;-82
2021/08/25 03:34:33;;;;;;;;;;;;;;;11.44;87.38;96961.34;5093203;28;19957;-83
2021/08/25 03:36:59;;;;;;;;;;;;;;;11.42;87.19;96958.91;5092298;28;19961;-82
2021/08/25 03:39:25;;;;;;;;;;;;;;;11.42;87.37;96951.03;5093366;28;19962;-81
2021/08/25 03:41:51;;;;;;;;;;;;;;;11.39;87.40;96951.47;5092541;28;20425;-80
2021/08/25 03:44:17;;;;;;;;;;;;;;;11.39;87.66;96951.47;5092945;28;19953;-80
2021/08/25 03:46:43;;;;;;;;;;;;;;;11.37;87.42;96943.00;5072141;28;19964;-80
2021/08/25 03:49:09;;;;;;;;;;;;;;;11.35;87.19;96950.28;5067835;28;19984;-81
2021/08/25 03:51:35;;;;;;;;;;;;;;;11.34;87.74;96946.84;5076150;28;20350;-80
2021/08/25 03:54:00;;;;;;;;;;;;;;;11.34;87.13;96946.06;5075769;28;20087;-80
2021/08/25 03:56:26;;;;;;;;;;;;;;;11.33;88.58;96941.81;5092985;28;20410;-82
2021/08/25 03:58:52;;;;;;;;;;;;;;;11.33;88.30;96944.44;5092928;28;19961;-81
2021/08/25 04:01:18;;;;;;;;;;;;;;;11.34;87.91;96943.44;5093071;28;19966;-81
2021/08/25 04:03:44;;;;;;;;;;;;;;;11.31;86.92;96942.00;5093935;28;19949;-80
2021/08/25 04:06:10;;;;;;;;;;;;;;;11.28;86.88;96945.06;5076031;28;19988;-81
2021/08/25 04:08:36;;;;;;;;;;;;;;;11.27;87.61;96937.41;5092838;28;20021;-80
2021/08/25 04:11:02;;;;;;;;;;;;;;;11.25;87.63;96944.66;5092961;28;19949;-80
2021/08/25 04:13:28;;;;;;;;;;;;;;;11.24;88.27;96935.19;5092586;28;20057;-80
2021/08/25 04:15:54;;;;;;;;;;;;;;;11.22;88.42;96938.03;5092284;28;19963;-80
2021/08/25 04:18:19;;;;;;;;;;;;;;;11.22;88.38;96947.72;5093956;28;20059;-80
2021/08/25 04:20:45;;;;;;;;;;;;;;;11.21;87.52;96936.41;5093996;28;20414;-80
2021/08/25 04:23:11;;;;;;;;;;;;;;;11.17;87.72;96946.53;5092453;28;20039;-80
2021/08/25 04:25:37;;;;;;;;;;;;;;;11.18;88.15;96949.97;5092546;28;19953;-80
2021/08/25 04:28:03;;;;;;;;;;;;;;;11.17;87.74;96938.66;5093808;28;19963;-80
2021/08/25 04:30:29;;;;;;;;;;;;;;;11.16;88.34;96947.53;5106393;28;19958;-81
2021/08/25 04:32:55;;;;;;;;;;;;;;;11.16;87.89;96944.09;5091785;28;19974;-84
2021/08/25 04:35:21;;;;;;;;;;;;;;;11.15;87.98;96940.69;5093876;28;20417;-83
2021/08/25 04:37:50;;;;;;;;;;;;;;;11.17;87.94;96935.22;5088168;28;19955;-83
2021/08/25 04:40:16;;;;;;;;;;;;;;;11.18;87.85;96939.47;5071007;28;19955;-78
2021/08/25 04:42:42;;;;;;;;;;;;;;;11.18;87.89;96942.09;5092687;28;20360;-79
2021/08/25 04:45:08;;;;;;;;;;;;;;;11.19;87.83;96930.56;5075625;28;20001;-79
2021/08/25 04:47:34;;;;;;;;;;;;;;;11.19;87.77;96938.44;5092004;28;19951;-79
2021/08/25 04:50:00;;;;;;;;;;;;;;;11.20;87.85;96939.25;5093485;28;20082;-80
2021/08/25 04:52:26;;;;;;;;;;;;;;;11.19;87.92;96935.81;5097246;28;20370;-80
2021/08/25 04:54:51;;;;;;;;;;;;;;;11.19;87.63;96941.06;5096481;28;20417;-80
2021/08/25 04:57:17;;;;;;;;;;;;;;;11.18;88.14;96936.84;5097369;28;19965;-80
2021/08/25 04:59:43;;;;;;;;;;;;;;;11.20;87.94;96934.00;5095813;28;19954;-80
2021/08/25 05:02:09;;;;;;;;;;;;;;;11.20;88.53;96947.13;5097208;28;19961;-83
2021/08/25 05:04:35;;;;;;;;;;;;;;;11.20;88.39;96934.81;5095539;28;20408;-83
2021/08/25 05:07:01;;;;;;;;;;;;;;;11.21;87.66;96946.09;5095459;28;19953;-83
2021/08/25 05:09:27;;;;;;;;;;;;;;;11.31;88.71;96947.25;5079429;28;19988;-83
2021/08/25 05:11:53;;;;;;;;;;;;;;;11.54;87.38;96944.09;5097241;28;19962;-83
2021/08/25 05:14:19;;;;;;;;;;;;;;;11.81;86.58;96946.56;5097134;28;19976;-82
2021/08/25 05:16:45;;;;;;;;;;;;;;;12.11;85.73;96944.13;5097147;28;19992;-83
2021/08/25 05:19:11;;;;;;;;;;;;;;;12.37;84.54;96937.06;5095455;28;19984;-83
2021/08/25 05:21:37;;;;;;;;;;;;;;;12.66;83.61;96939.97;5096000;28;19997;-82
2021/08/25 05:24:03;;;;;;;;;;;;;;;12.92;82.53;96937.06;5095126;28;20006;-82
2021/08/25 05:26:29;;;;;;;;;;;;;;;13.17;80.95;96942.22;5095899;28;19961;-82
2021/08/25 05:28:56;;;;;;;;;;;;;;;13.40;79.89;96946.84;5096688;28;19964;-82
2021/08/25 05:31:25;;;;;;;;;;;;;;;13.62;79.46;96940.25;5095871;28;19953;-83
2021/08/25 05:33:51;;;;;;;;;;;;;;;13.84;78.11;96945.81;5095192;28;19971;-83
2021/08/25 05:36:17;;;;;;;;;;;;;;;14.06;77.66;96946.88;5095609;28;20449;-83
2021/08/25 05:38:43;;;;;;;;;;;;;;;14.31;77.41;96951.16;5097236;28;19956;-83
2021/08/25 05:41:09;;;;;;;;;;;;;;;14.49;75.96;96956.31;5095417;28;19992;-83
2021/08/25 05:43:35;;;;;;;;;;;;;;;14.68;76.70;96962.31;5096984;28;20044;-83
2021/08/25 05:46:02;;;;;;;;;;;;;;;14.86;76.07;96956.06;5078318;28;19956;-82
2021/08/25 05:48:28;;;;;;;;;;;;;;;15.05;74.09;96961.22;5096315;28;19961;-82
2021/08/25 05:50:54;;;;;;;;;;;;;;;15.24;74.02;96965.28;5097053;28;19985;-81
2021/08/25 05:53:20;;;;;;;;;;;;;;;15.48;73.40;96963.38;5077981;28;19974;-81
2021/08/25 05:55:46;;;;;;;;;;;;;;;15.71;72.82;96966.97;5096557;28;19958;-81
2021/08/25 05:58:12;;;;;;;;;;;;;;;15.91;72.67;96963.88;5077309;28;20416;-81
2021/08/25 06:00:38;;;;;;;;;;;;;;;16.14;71.44;96958.44;5095499;28;20006;-81
2021/08/25 06:03:04;;;;;;;;;;;;;;;16.38;71.05;96958.28;5096129;28;19955;-81
2021/08/25 06:05:30;;;;;;;;;;;;;;;16.57;70.92;96951.69;5094586;28;19960;-81
2021/08/25 06:07:56;;;;;;;;;;;;;;;16.77;70.03;96953.78;5096317;28;19967;-81
2021/08/25 06:10:22;;;;;;;;;;;;;;;16.99;70.14;96953.84;5096235;28;19951;-82
2021/08/25 06:12:48;;;;;;;;;;;;;;;17.13;68.19;96946.31;5108711;28;19973;-82
2021/08/25 06:15:14;;;;;;;;;;;;;;;17.31;68.75;96942.56;5086498;28;20006;-82
2021/08/25 06:17:40;;;;;;;;;;;;;;;17.48;67.63;96939.03;5095833;28;19971;-81
2021/08/25 06:20:06;;;;;;;;;;;;;;;17.61;67.41;96933.31;5094892;28;19963;-82
2021/08/25 06:22:32;;;;;;;;;;;;;;;17.69;66.89;96929.41;5094667;28;20351;-82
2021/08/25 06:24:58;;;;;;;;;;;;;;;17.76;66.66;96932.66;5096084;28;19951;-83
2021/08/25 06:27:24;;;;;;;;;;;;;;;17.85;66.32;96926.69;5093848;28;19956;-82
2021/08/25 06:29:50;;;;;;;;;;;;;;;17.96;66.87;96932.06;5095408;28;19956;-83
2021/08/25 06:32:16;;;;;;;;;;;;;;;17.99;65.42;96929.69;5095788;28;20376;-84
2021/08/25 06:34:42;;;;;;;;;;;;;;;18.07;66.41;96935.59;5095070;28;19970;-85
2021/08/25 06:37:08;;;;;;;;;;;;;;;18.11;65.68;96929.53;5094683;28;19956;-85
2021/08/25 06:39:34;;;;;;;;;;;;;;;18.17;65.25;96927.72;5095469;28;20330;-85
2021/08/25 06:42:00;;;;;;;;;;;;;;;18.31;64.55;96920.09;5095566;28;19962;-84
2021/08/25 06:44:26;;;;;;;;;;;;;;;18.41;66.01;96938.75;5095181;28;20004;-84
2021/08/25 06:46:52;;;;;;;;;;;;;;;18.49;64.19;96924.22;5094643;28;19963;-84
2021/08/25 06:49:18;;;;;;;;;;;;;;;18.58;64.23;96925.31;5093926;28;20480;-84
2021/08/25 06:51:44;;;;;;;;;;;;;;;18.62;62.88;96913.91;5095558;28;20008;-84
2021/08/25 06:54:10;;;;;;;;;;;;;;;18.70;64.38;96930.44;5094123;28;20036;-84
2021/08/25 06:56:36;;;;;;;;;;;;;;;18.78;63.79;96925.47;5077172;28;20344;-84
2021/08/25 06:59:02;;;;;;;;;;;;;;;18.83;61.26;96914.84;5093708;28;20427;-85
2021/08/25 07:01:28;;;;;;;;;;;;;;;18.84;62.48;96913.78;5093466;28;19970;-85
2021/08/25 07:03:54;;;;;;;;;;;;;;;18.83;62.47;96920.16;5093227;28;20478;-85
2021/08/25 07:06:20;;;;;;;;;;;;;;;18.85;62.88;96918.03;5093380;28;19962;-85
2021/08/25 07:08:52;;;;;;;;;;;;;;;18.81;63.01;96924.13;5094020;28;19969;-85
2021/08/25 07:11:18;;;;;;;;;;;;;;;18.81;63.62;96927.59;5076718;28;19976;-82
2021/08/25 07:13:44;;;;;;;;;;;;;;;18.65;61.13;96909.97;5075974;28;19984;-83
2021/08/25 07:16:10;;;;;;;;;;;;;;;18.65;59.45;96889.50;5094886;28;19971;-84
2021/08/25 07:18:37;;;;;;;;;;;;;;;18.49;59.96;96892.34;5094909;28;19963;-85
2021/08/25 07:21:04;;;;;;;;;;;;;;;18.47;62.28;96916.50;5094846;28;19968;-85
2021/08/25 07:23:30;;;;;;;;;;;;;;;18.52;61.74;96911.22;5059889;28;19972;-85
2021/08/25 07:25:57;;;;;;;;;;;;;;;18.60;60.31;96901.94;5093406;28;19966;-85
2021/08/25 07:28:22;;;;;;;;;;;;;;;18.65;61.06;96900.13;5094308;28;19969;-85
2021/08/25 07:30:48;;;;;;;;;;;;;;;18.52;60.68;96897.94;5092895;28;19964;-85
2021/08/25 07:33:16;;;;;;;;;;;;;;;18.37;58.61;96887.22;5093178;28;20500;-85
2021/08/25 07:35:46;;;;;;;;;;;;;;;18.32;60.62;96903.13;5094384;28;19967;-85
2021/08/25 07:38:12;;;;;;;;;;;;;;;18.52;61.68;96918.38;5107138;28;19977;-85
2021/08/25 07:40:38;;;;;;;;;;;;;;;18.72;61.21;96904.41;5094422;28;19967;-85
2021/08/25 07:43:04;;;;;;;;;;;;;;;18.85;61.76;96912.72;5093417;28;19977;-85
2021/08/25 07:45:32;;;;;;;;;;;;;;;18.96;61.31;96910.94;5093072;28;20417;-84
2021/08/25 07:47:58;;;;;;;;;;;;;;;19.00;59.91;96901.38;5110284;28;19978;-85
2021/08/25 07:50:24;;;;;;;;;;;;;;;19.03;60.18;96890.22;5094077;28;19986;-85
2021/08/25 07:52:50;;;;;;;;;;;;;;;18.76;55.29;96844.38;5092776;28;19972;-85
2021/08/25 07:55:16;;;;;;;;;;;;;;;18.67;58.93;96881.28;5093077;28;19960;-86
2021/08/25 07:57:42;;;;;;;;;;;;;;;18.73;58.71;96877.59;5094077;28;19979;-85
2021/08/25 08:00:08;;;;;;;;;;;;;;;18.80;60.33;96886.16;5094334;28;20420;-86
2021/08/25 08:02:34;;;;;;;;;;;;;;;18.95;57.97;96869.44;5092381;28;19964;-86
2021/08/25 08:05:01;;;;;;;;;;;;;;;19.13;60.41;96885.97;5091928;28;19963;-85
2021/08/25 08:07:27;;;;;;;;;;;;;;;19.06;56.64;96851.66;5094253;28;20424;-85
2021/08/25 08:09:53;;;;;;;;;;;;;;;18.90;60.17;96893.38;5092548;28;20426;-85
2021/08/25 08:12:19;;;;;;;;;;;;;;;18.96;58.45;96860.44;5094404;28;20084;-85
2021/08/25 08:14:45;;;;;;;;;;;;;;;18.95;57.42;96850.84;5093625;28;20379;-85
2021/08/25 08:17:11;;;;;;;;;;;;;;;18.86;55.27;96847.91;5092728;28;19982;-86
2021/08/25 08:19:37;;;;;;;;;;;;;;;18.95;57.64;96860.69;5092139;28;19975;-85
2021/08/25 08:22:03;;;;;;;;;;;;;;;19.09;59.76;96884.91;5093612;28;19962;-85
2021/08/25 08:24:29;;;;;;;;;;;;;;;18.81;54.19;96839.91;5092629;28;19968;-85
2021/08/25 08:26:58;;;;;;;;;;;;;;;18.63;56.55;96862.41;5096479;28;19971;-85
2021/08/25 08:29:25;;;;;;;;;;;;;;;18.83;59.26;96888.28;5097243;28;20343;-86
2021/08/25 08:31:51;;;;;;;;;;;;;;;19.06;56.41;96857.00;5097925;28;20421;-85
2021/08/25 08:34:16;;;;;;;;;;;;;;;19.19;57.11;96861.00;5098268;28;20066;-85
2021/08/25 08:36:42;;;;;;;;;;;;;;;19.32;55.84;96857.03;5079145;28;19970;-85
2021/08/25 08:39:08;;;;;;;;;;;;;;;19.36;57.93;96871.41;5097675;28;20348;-85
2021/08/25 08:41:34;;;;;;;;;;;;;;;19.13;52.75;96827.50;5097944;28;19961;-85
2021/08/25 08:44:00;;;;;;;;;;;;;;;19.06;52.90;96841.03;5097889;28;19956;-86
2021/08/25 08:46:26;;;;;;;;;;;;;;;18.76;51.89;96828.44;5096375;28;19956;-85
2021/08/25 08:48:53;;;;;;;;;;;;;;;18.67;54.41;96854.72;5097515;28;20063;-86
2021/08/25 08:51:21;;;;;;;;;;;;;;;18.76;55.77;96860.31;5095440;28;19959;-85
2021/08/25 08:53:47;;;;;;;;;;;;;;;18.96;56.94;96878.22;5097256;28;19987;-85
2021/08/25 08:56:13;;;;;;;;;;;;;;;18.95;52.41;96828.78;5079172;28;19956;-85
2021/08/25 08:58:40;;;;;;;;;;;;;;;18.89;50.69;96801.41;5078773;28;19983;-85
2021/08/25 09:01:06;;;;;;;;;;;;;;;19.00;54.37;96850.06;5097472;28;19964;-85
2021/08/25 09:03:34;;;;;;;;;;;;;;;19.05;51.44;96804.91;5097273;28;19967;-85
2021/08/25 09:06:00;;;;;;;;;;;;;;;18.96;51.92;96827.72;5097061;28;19962;-84
2021/08/25 09:08:30;;;;;;;;;;;;;;;18.78;51.91;96824.50;5097519;28;19971;-85
2021/08/25 09:10:59;;;;;;;;;;;;;;;18.75;51.29;96821.50;5095419;28;19978;-85
2021/08/25 09:13:32;;;;;;;;;;;;;;;18.81;53.99;96839.91;5096896;28;19981;-86
2021/08/25 09:15:58;;;;;;;;;;;;;;;18.92;54.46;96840.75;5096438;28;20354;-85
2021/08/25 09:18:24;;;;;;;;;;;;;;;18.91;54.28;96836.47;5097288;28;19962;-85
2021/08/25 09:20:50;;;;;;;;;;;;;;;19.10;55.26;96852.75;5095713;28;19971;-86
2021/08/25 09:23:23;;;;;;;;;;;;;;;19.20;53.27;96834.16;5096087;28;19958;-86
2021/08/25 09:25:53;;;;;;;;;;;;;;;19.17;52.15;96825.91;5067473;28;19962;-86
2021/08/25 09:28:26;;;;;;;;;;;;;;;19.26;52.88;96817.16;5096869;28;19968;-86
2021/08/25 09:30:54;;;;;;;;;;;;;;;19.39;53.58;96823.81;5096702;28;19974;-86
2021/08/25 09:33:22;;;;;;;;;;;;;;;19.53;54.55;96833.91;5096465;28;20422;-85
2021/08/25 09:35:48;;;;;;;;;;;;;;;19.61;51.50;96810.25;5097026;28;19995;-86
2021/08/25 09:38:19;;;;;;;;;;;;;;;19.57;52.23;96824.34;5077430;28;19967;-86
2021/08/25 09:40:49;;;;;;;;;;;;;;;19.44;49.09;96797.22;5096025;28;20314;-86
2021/08/25 09:43:32;;;;;;;;;;;;;;;19.33;52.44;96813.44;5094961;28;19982;-86
2021/08/25 09:46:08;;;;;;;;;;;;;;;19.37;53.62;96828.59;5094498;28;19966;-86
2021/08/25 09:48:35;;;;;;;;;;;;;;;19.38;51.61;96821.41;5096652;28;19971;-86
2021/08/25 09:51:02;;;;;;;;;;;;;;;19.41;53.33;96834.97;5094203;28;20459;-86
2021/08/25 09:53:28;;;;;;;;;;;;;;;19.38;50.25;96818.75;5096499;28;19988;-86
2021/08/25 09:55:54;;;;;;;;;;;;;;;19.31;49.75;96808.38;5096303;28;19953;-86
2021/08/25 09:58:23;;;;;;;;;;;;;;;19.27;51.75;96837.34;5094327;28;20423;-85
2021/08/25 10:00:49;;;;;;;;;;;;;;;19.14;48.07;96798.00;5096213;28;19974;-86
2021/08/25 10:03:14;;;;;;;;;;;;;;;19.09;48.12;96805.97;5095466;28;19965;-86
2021/08/25 10:05:44;;;;;;;;;;;;;;;19.03;48.33;96812.34;5096153;28;20052;-85
2021/08/25 10:08:11;;;;;;;;;;;;;;;19.11;51.38;96826.94;5096295;28;19964;-85
2021/08/25 10:10:36;;;;;;;;;;;;;;;19.29;52.11;96830.97;5094743;28;19979;-86
2021/08/25 10:13:04;;;;;;;;;;;;;;;19.33;47.99;96800.13;5078036;28;20328;-86
2021/08/25 10:15:29;;;;;;;;;;;;;;;19.40;49.01;96812.13;5094378;28;20360;-86
2021/08/25 10:17:55;;;;;;;;;;;;;;;19.44;49.99;96815.84;5096271;28;19958;-86
2021/08/25 10:20:34;;;;;;;;;;;;;;;19.60;50.52;96810.53;5095696;28;19972;-86
2021/08/25 10:23:01;;;;;;;;;;;;;;;19.78;49.18;96801.22;5093748;28;20433;-85
2021/08/25 10:25:27;;;;;;;;;;;;;;;19.76;48.23;96785.53;5093735;28;19957;-86
2021/08/25 10:27:59;;;;;;;;;;;;;;;19.93;51.42;96813.69;5077987;28;19989;-86
2021/08/25 10:30:25;;;;;;;;;;;;;;;19.96;50.48;96792.66;5094431;28;19960;-86
2021/08/25 10:32:51;;;;;;;;;;;;;;;19.78;50.89;96812.69;5094442;28;19956;-86
2021/08/25 10:35:17;;;;;;;;;;;;;;;19.82;51.58;96810.25;5095581;28;20040;-86
2021/08/25 10:37:44;;;;;;;;;;;;;;;19.80;51.37;96804.41;5095476;28;19961;-86
2021/08/25 10:40:10;;;;;;;;;;;;;;;19.72;51.54;96808.41;5095860;28;19964;-86
2021/08/25 10:42:43;;;;;;;;;;;;;;;19.67;51.42;96809.19;5093752;28;20448;-86
2021/08/25 10:45:09;;;;;;;;;;;;;;;19.79;48.43;96776.22;5095442;28;19973;-86
2021/08/25 10:47:53;;;;;;;;;;;;;;;19.95;49.55;96791.09;5095548;28;19980;-86
2021/08/25 10:50:19;;;;;;;;;;;;;;;20.25;51.76;96802.72;5076241;28;19986;-87
2021/08/25 10:52:45;;;;;;;;;;;;;;;20.53;51.04;96808.50;5095425;28;19972;-85
2021/08/25 10:55:11;;;;;;;;;;;;;;;20.71;49.10;96781.25;5095146;28;20037;-86
2021/08/25 10:57:42;;;;;;;;;;;;;;;20.88;47.84;96773.69;5093946;28;19975;-85
2021/08/25 11:00:08;;;;;;;;;;;;;;;21.06;48.73;96777.59;5094033;28;19964;-86
2021/08/25 11:02:37;;;;;;;;;;;;;;;21.23;49.32;96776.38;5095208;28;19955;-85
2021/08/25 11:05:12;;;;;;;;;;;;;;;21.43;49.26;96776.25;5095051;28;20011;-85
2021/08/25 11:07:42;;;;;;;;;;;;;;;21.61;49.23;96779.34;5094386;28;19966;-86
2021/08/25 11:10:08;;;;;;;;;;;;;;;21.62;46.49;96784.38;5094968;28;19970;-86
2021/08/25 11:12:34;;;;;;;;;;;;;;;21.34;46.50;96779.81;5095038;28;19964;-86
2021/08/25 11:15:00;;;;;;;;;;;;;;;21.08;47.79;96783.44;5093500;28;20010;-86
2021/08/25 11:17:30;;;;;;;;;;;;;;;21.05;49.01;96791.19;5092846;28;19964;-87
2021/08/25 11:19:57;;;;;;;;;;;;;;;21.04;47.24;96766.41;5095167;28;19971;-85
2021/08/25 11:22:27;;;;;;;;;;;;;;;20.87;45.30;96773.97;5093403;28;19967;-85
2021/08/25 11:24:54;;;;;;;;;;;;;;;20.74;46.88;96778.03;5092482;28;19967;-84
2021/08/25 11:27:25;;;;;;;;;;;;;;;20.75;42.72;96760.97;5093749;28;19962;-83
2021/08/25 11:30:10;;;;;;;;;;;;;;;20.62;42.64;96767.72;5094618;28;20345;-84
2021/08/25 11:32:41;;;;;;;;;;;;;;;20.65;44.96;96783.16;5085459;28;19966;-82
2021/08/25 11:35:08;;;;;;;;;;;;;;;20.68;42.50;96755.97;5094784;28;19982;-84
2021/08/25 11:37:35;;;;;;;;;;;;;;;20.55;43.22;96769.03;5093543;28;20542;-85
2021/08/25 11:40:04;;;;;;;;;;;;;;;20.56;44.47;96768.78;5093205;28;20053;-84
2021/08/25 11:42:31;;;;;;;;;;;;;;;20.81;45.90;96783.06;5109146;28;19978;-86
2021/08/25 11:44:57;;;;;;;;;;;;;;;21.01;41.60;96760.81;5094503;28;19966;-85
2021/08/25 11:47:23;;;;;;;;;;;;;;;21.06;42.44;96756.25;5092262;28;20427;-85
2021/08/25 11:49:51;;;;;;;;;;;;;;;21.25;45.91;96785.72;5092605;28;20001;-86
2021/08/25 11:52:19;;;;;;;;;;;;;;;21.52;44.79;96765.00;5093002;28;19967;-85
2021/08/25 11:54:45;;;;;;;;;;;;;;;21.69;44.08;96755.50;5092858;28;19985;-85
2021/08/25 11:57:12;;;;;;;;;;;;;;;21.86;45.34;96763.09;5091962;28;19983;-84
2021/08/25 11:59:57;;;;;;;;;;;;;;;21.54;41.37;96747.63;5091954;28;19977;-83
2021/08/25 12:02:23;;;;;;;;;;;;;;;21.56;43.68;96760.69;5092394;28;19969;-79
2021/08/25 12:04:49;;;;;;;;;;;;;;;21.68;41.56;96742.44;5092974;28;19968;-79
2021/08/25 12:07:17;;;;;;;;;;;;;;;21.66;42.52;96747.25;5109395;28;19964;-79
2021/08/25 12:09:43;;;;;;;;;;;;;;;21.59;43.53;96762.81;5092889;28;19969;-79
2021/08/25 12:12:09;;;;;;;;;;;;;;;21.68;40.77;96731.75;5093992;28;19974;-79
2021/08/25 12:14:52;;;;;;;;;;;;;;;21.74;40.83;96735.19;5094033;28;20335;-80
2021/08/25 12:17:18;;;;;;;;;;;;;;;22.00;41.95;96752.50;5083362;28;20320;-79
2021/08/25 12:19:57;;;;;;;;;;;;;;;21.99;41.44;96747.47;5093877;28;19979;-80
2021/08/25 12:22:29;;;;;;;;;;;;;;;21.65;39.98;96729.66;5079724;28;19971;-81
2021/08/25 12:24:56;;;;;;;;;;;;;;;21.60;41.53;96735.81;5094415;28;20349;-81
2021/08/25 12:27:22;;;;;;;;;;;;;;;21.54;41.04;96728.16;5093808;28;20419;-81
2021/08/25 12:29:48;;;;;;;;;;;;;;;21.68;41.98;96731.75;5093186;28;20318;-81
2021/08/25 12:32:14;;;;;;;;;;;;;;;21.91;43.12;96740.06;5093812;28;20002;-81
2021/08/25 12:35:00;;;;;;;;;;;;;;;22.22;42.76;96737.88;5093755;28;20486;-81
2021/08/25 12:37:44;;;;;;;;;;;;;;;22.51;42.73;96719.09;5093596;28;19968;-81
2021/08/25 12:40:10;;;;;;;;;;;;;;;22.57;41.89;96701.09;5092343;28;19970;-80
2021/08/25 12:42:36;;;;;;;;;;;;;;;22.62;42.49;96725.88;5093454;28;20050;-81
2021/08/25 12:45:02;;;;;;;;;;;;;;;22.73;42.52;96715.03;5092326;28;19971;-82
2021/08/25 12:47:28;;;;;;;;;;;;;;;22.76;41.66;96707.22;5092463;28;19982;-81